Flight Track Log - Related Links

Times and Time Zones

All times are in EDT time to prevent confusion due to time zone crossing. See the AAY800 flight status page for this flight to view local times or setup timezone preferences in your user account.

Time Position Orientation Groundspeed Altitude Reporting Facility
EDT Latitude Longitude Course Direction KTS MPH feet Rate Location/Type
Thu 06:28:05 AM 27.9333 -82.7000 41° Northeast 151 174 700  Level Tampa TRACON
Thu 06:28:41 AM 27.9500 -82.6833 41° Northeast 174 200 1,600 1,512 Climbing Tampa TRACON
Thu 06:30:12 AM 28.0392 -82.6644 11° North 209 241 3,900 2,106 Climbing Jacksonville Center
Thu 06:31:12 AM 28.1164 -82.6689 357° North 238 274 6,900 2,750 Climbing Jacksonville Center
Thu 06:32:12 AM 28.1978 -82.6783 354° North 269 310 9,400 2,100 Climbing Jacksonville Center
Thu 06:33:12 AM 28.2811 -82.6875 354° North 291 335 11,100 1,850 Climbing Jacksonville Center
Thu 06:34:12 AM 28.3814 -82.6944 357° North 325 374 13,100 2,050 Climbing Jacksonville Center
Thu 06:35:12 AM 28.4858 -82.7036 356° North 356 410 15,200 2,050 Climbing Jacksonville Center
Thu 06:36:12 AM 28.5881 -82.7153 354° North 370 426 17,200 1,631 Climbing Jacksonville Center
Thu 06:41:42 AM 29.2322 -82.6913 North 435 501 25,800 1,365 Climbing FlightAware ADS-B
Thu 06:45:39 AM 29.7249 -82.6528 North 459 528 30,100 1,137 Climbing FlightAware ADS-B
Thu 06:46:27 AM 29.8134 -82.6459 North 453 521 31,200 1,338 Climbing FlightAware ADS-B
Thu 06:48:07 AM 30.0347 -82.6285 North 444 511 33,400 1,243 Climbing FlightAware ADS-B
Thu 06:48:47 AM 30.1163 -82.6221 North 442 509 34,100 1,111 Climbing FlightAware ADS-B
Thu 06:49:28 AM 30.1988 -82.6156 North 438 504 34,900 675 Climbing FlightAware ADS-B
Thu 06:50:07 AM 30.2798 -82.6091 North 440 506 35,000 32 Climbing FlightAware ADS-B
Thu 06:52:38 AM 30.5878 -82.5846 North 442 509 35,000  Level FlightAware ADS-B
Thu 06:53:12 AM 30.6503 -82.5836 North 437 503 35,000  Level Jacksonville Center
Thu 06:54:12 AM 30.7714 -82.5733 North 437 503 35,000 -50 Level Jacksonville Center
Thu 06:55:12 AM 30.8967 -82.5608 North 442 509 34,900 -50 Descending Jacksonville Center
Thu 06:56:12 AM 30.9947 -82.5556 North 442 509 34,900  Level Jacksonville Center
Thu 06:57:12 AM 31.1264 -82.5456 North 442 509 34,900 50 Level Jacksonville Center
Thu 06:58:12 AM 31.2517 -82.5353 North 442 509 35,000 50 Climbing Jacksonville Center
Thu 06:59:12 AM 31.3767 -82.5203 North 442 509 35,000  Level Jacksonville Center
Thu 07:01:11 AM 31.6325 -82.4950 North 444 511 35,000  Level Atlanta Center
Thu 07:02:11 AM 31.7556 -82.4758 North 444 511 35,000  Level Atlanta Center
Thu 07:03:11 AM 31.8825 -82.4564 North 444 511 35,000  Level Atlanta Center
Thu 07:04:11 AM 32.0011 -82.4347 North 444 511 35,000  Level Atlanta Center
Thu 07:05:11 AM 32.1261 -82.4153 North 444 511 35,000  Level Atlanta Center
Thu 07:06:11 AM 32.2469 -82.3958 North 444 511 35,000  Level Atlanta Center
Thu 07:07:11 AM 32.3697 -82.3739 North 444 511 35,000  Level Atlanta Center
Thu 07:08:11 AM 32.4928 -82.3544 North 444 511 35,000  Level Atlanta Center
Thu 07:09:11 AM 32.6178 -82.3347 North 444 511 35,000  Level Atlanta Center
Thu 07:10:11 AM 32.7425 -82.3125 North 449 517 35,000  Level Atlanta Center
Thu 07:11:11 AM 32.8697 -82.2928 North 449 517 35,000  Level Atlanta Center
Thu 07:12:11 AM 32.9947 -82.2728 North 449 517 35,000  Level Atlanta Center
Thu 07:13:11 AM 33.1236 -82.2506 North 449 517 35,000  Level Atlanta Center
Thu 07:14:11 AM 33.2508 -82.2281 North 454 522 35,000  Level Atlanta Center
Thu 07:15:11 AM 33.3672 -82.2106 North 463 533 35,000  Level Atlanta Center
Thu 07:16:11 AM 33.4964 -82.1881 North 463 533 35,000  Level Atlanta Center
Thu 07:17:11 AM 33.6256 -82.1653 North 463 533 35,000  Level Atlanta Center
Thu 07:18:11 AM 33.7547 -82.1450 North 463 533 35,000  Level Atlanta Center
Thu 07:19:11 AM 33.8836 -82.1219 North 463 533 35,000  Level Atlanta Center
Thu 07:20:11 AM 34.0106 -82.1017 North 463 533 35,000 -50 Level Atlanta Center
Thu 07:21:11 AM 34.1458 -82.0786 North 457 526 34,900 -50 Descending Atlanta Center
Thu 07:22:11 AM 34.2686 -82.0581 North 452 520 34,900 50 Level Atlanta Center
Thu 07:23:11 AM 34.3936 -82.0375 North 446 513 35,000 50 Climbing Atlanta Center
Thu 07:24:11 AM 34.5164 -82.0169 North 446 513 35,000  Level Atlanta Center
Thu 07:25:11 AM 34.6369 -81.9939 North 446 513 35,000  Level Atlanta Center
Thu 07:26:11 AM 34.7642 -81.9781 North 446 513 35,000  Level Atlanta Center
Thu 07:27:11 AM 34.8869 -81.9547 North 446 513 35,000  Level Atlanta Center
Thu 07:28:11 AM 35.0097 -81.9392 North 446 513 35,000  Level Atlanta Center
Thu 07:29:11 AM 35.1328 -81.9436 358° North 441 507 35,000  Level Atlanta Center
Thu 07:30:11 AM 35.2542 -81.9583 354° North 441 507 35,000  Level Atlanta Center
Thu 07:31:11 AM 35.3733 -81.9731 354° North 441 507 35,000 -50 Level Atlanta Center
Thu 07:32:11 AM 35.4967 -81.9878 354° North 441 507 34,900  Descending Atlanta Center
Thu 07:33:11 AM 35.6200 -82.0028 354° North 446 513 35,000 50 Climbing Atlanta Center
Thu 07:34:11 AM 35.7411 -82.0175 354° North 446 513 35,000  Level Atlanta Center
Thu 07:35:11 AM 35.8647 -82.0350 353° North 446 513 35,000  Level Atlanta Center
Thu 07:36:11 AM 35.9858 -82.0472 355° North 441 507 35,000 -50 Level Atlanta Center
Thu 07:37:11 AM 36.1028 -82.0625 354° North 436 502 34,900  Descending Atlanta Center
Thu 07:39:19 AM 36.3375 -82.0881 355° North 430 495 35,000 31 Climbing Indianapolis Center
Thu 07:40:23 AM 36.4800 -82.1058 354° North 436 502 35,000 242 Level Indianapolis Center
Thu 07:41:23 AM 36.6031 -82.1203 355° North 441 507 35,500 893 Climbing Indianapolis Center
Thu 07:42:24 AM 36.7250 -82.1358 354° North 441 507 36,800 744 Climbing Indianapolis Center
Thu 07:43:24 AM 36.8461 -82.1506 354° North 441 507 37,000 98 Climbing Indianapolis Center
Thu 07:44:26 AM 36.9639 -82.1664 354° North 435 501 37,000  Level Indianapolis Center
Thu 07:45:30 AM 37.0844 -82.1803 355° North 434 499 37,000  Level Indianapolis Center
Thu 07:46:31 AM 37.2267 -82.1997 354° North 436 502 37,000  Level Indianapolis Center
Thu 07:47:32 AM 37.3492 -82.2153 354° North 439 505 37,000  Level Indianapolis Center
Thu 07:48:36 AM 37.4706 -82.2319 354° North 439 505 37,000  Level Indianapolis Center
Thu 07:49:36 AM 37.5925 -82.2478 354° North 439 505 37,000  Level Indianapolis Center
Thu 07:50:39 AM 37.7139 -82.2625 355° North 439 505 37,000  Level Indianapolis Center
Thu 07:51:40 AM 37.8361 -82.2789 354° North 439 505 37,000  Level Indianapolis Center
Thu 07:52:40 AM 37.9794 -82.2958 355° North 439 505 37,000  Level Indianapolis Center
Thu 07:58:59 AM 38.7585 -82.3995 354° North 438 504 37,000  Level FlightAware ADS-B
Thu 07:59:36 AM 38.8340 -82.4094 354° North 437 503 37,000 -231 Level FlightAware ADS-B
Thu 08:00:17 AM 38.9156 -82.4203 354° North 436 502 36,700 -649 Descending FlightAware ADS-B
Thu 08:00:50 AM 38.9821 -82.4293 354° North 436 502 36,200 -904 Descending FlightAware ADS-B
Thu 08:01:30 AM 39.0629 -82.4403 354° North 445 512 35,600 -1,014 Descending FlightAware ADS-B
Thu 08:02:01 AM 39.1273 -82.4490 354° North 452 520 35,000 -1,065 Descending FlightAware ADS-B
Thu 08:02:32 AM 39.1922 -82.4576 354° North 451 519 34,500 -968 Descending FlightAware ADS-B
Thu 08:03:03 AM 39.2562 -82.4662 354° North 444 511 34,000 -896 Descending FlightAware ADS-B
Thu 08:03:39 AM 39.3260 -82.4791 344° North 435 501 33,500 -909 Descending FlightAware ADS-B
Thu 08:04:09 AM 39.3834 -82.5091 337° Northwest 427 491 33,000 -973 Descending FlightAware ADS-B
Thu 08:04:53 AM 39.4609 -82.5499 338° Northwest 420 483 32,300 -951 Descending FlightAware ADS-B
Thu 08:05:31 AM 39.5304 -82.5864 338° Northwest 413 475 31,700 -1,000 Descending FlightAware ADS-B
Thu 08:06:05 AM 39.5906 -82.6185 337° Northwest 409 471 31,100 -1,014 Descending FlightAware ADS-B
Thu 08:06:42 AM 39.6555 -82.6533 338° Northwest 404 465 30,500 -897 Descending FlightAware ADS-B
Thu 08:07:52 AM 39.7692 -82.7139 338° Northwest 402 463 29,500 -909 Descending Cleveland Center
Thu 08:08:54 AM 39.8689 -82.7678 337° Northwest 396 456 28,500 -919 Descending Cleveland Center
Thu 08:09:56 AM 39.9672 -82.8203 338° Northwest 389 448 27,600 -919 Descending Cleveland Center
Thu 08:10:58 AM 40.0642 -82.8719 338° Northwest 384 442 26,600 -968 Descending Cleveland Center
Thu 08:12:00 AM 40.1600 -82.9242 337° Northwest 380 437 25,600 -1,016 Descending Cleveland Center
Thu 08:13:02 AM 40.2711 -82.9856 337° Northwest 371 427 24,500 -1,016 Descending Cleveland Center
Thu 08:14:04 AM 40.3656 -83.0353 338° Northwest 370 426 23,500 -919 Descending Cleveland Center
Thu 08:15:06 AM 40.4550 -83.0850 337° Northwest 358 412 22,600 -1,008 Descending Cleveland Center
Thu 08:16:09 AM 40.5456 -83.1356 337° Northwest 355 409 21,400 -1,452 Descending Cleveland Center
Thu 08:17:10 AM 40.6375 -83.1847 338° Northwest 355 409 19,600 -1,887 Descending Cleveland Center
Thu 08:18:13 AM 40.7419 -83.2428 337° Northwest 346 398 17,500 -1,824 Descending Cleveland Center
Thu 08:19:15 AM 40.8244 -83.2881 337° Northwest 328 377 15,800 -1,548 Descending Cleveland Center
Thu 08:20:17 AM 40.9042 -83.3333 337° Northwest 319 367 14,300 -1,500 Descending Cleveland Center
Thu 08:21:19 AM 40.9828 -83.3772 337° Northwest 311 358 12,700 -1,500 Descending Cleveland Center
Thu 08:22:21 AM 41.0603 -83.4225 336° Northwest 309 356 11,200 -1,403 Descending Cleveland Center
Thu 08:23:23 AM 41.1228 -83.5122 313° West 286 329 9,800 -1,597 Descending Cleveland Center
Thu 08:24:25 AM 41.1753 -83.5847 314° West 269 310 7,900 -1,694 Descending Cleveland Center
Thu 08:25:27 AM 41.2392 -83.6278 333° Northwest 255 293 6,300 -1,355 Descending Cleveland Center
Thu 08:26:29 AM 41.2894 -83.6925 316° Northwest 254 292 5,100 -912 Descending Cleveland Center
Thu 08:27:32 AM 41.3417 -83.7606 316° Northwest 248 285 4,400 -528 Descending Cleveland Center
Thu 08:28:34 AM 41.3961 -83.8125 324° Northwest 249 287 4,000 -387 Descending Cleveland Center
Thu 08:30:00 AM 41.4656 -83.6567 312° West  Level FlightAware Approximate
Thu 08:37:00 AM 41.5833 -83.8000 312° West  Level FlightAware Approximate

Login

Don't have an account? Register now (free) for customized features, flight alerts, and more!